Time;durP1;ratioP1;P1;durP2;ratioP2;P2;SDS_P1;SDS_P2;PMS_P1;PMS_P2;Temp;Humidity;BMP_temperature;BMP_pressure;BME280_temperature;BME280_humidity;BME280_pressure;Samples;Min_cycle;Max_cycle;Signal;HPM_P1;HPM_P2
2023/03/16 00:00:12;;;;;;;;;3.50;3.50;;;;;;;;5112712;27;8950;-72
2023/03/16 00:02:38;;;;;;;;;4.75;4.75;;;;;;;;5112680;27;8826;-72
2023/03/16 00:05:03;;;;;;;;;4.25;3.50;;;;;;;;5112626;27;10699;-73
2023/03/16 00:07:29;;;;;;;;;5.25;4.00;;;;;;;;5112483;27;8858;-72
2023/03/16 00:09:54;;;;;;;;;4.00;4.00;;;;;;;;5112303;27;9718;-73
2023/03/16 00:12:21;;;;;;;;;7.50;6.00;;;;;;;;5112376;27;8804;-73
2023/03/16 00:14:47;;;;;;;;;4.50;3.50;;;;;;;;5111304;28;8777;-72
2023/03/16 00:17:18;;;;;;;;;3.00;3.00;;;;;;;;5111217;27;10142;-73
2023/03/16 00:19:48;;;;;;;;;3.25;3.25;;;;;;;;5110881;28;10027;-73
2023/03/16 00:22:14;;;;;;;;;5.25;4.25;;;;;;;;5112103;27;10145;-73
2023/03/16 00:24:42;;;;;;;;;3.00;3.00;;;;;;;;5112397;27;10158;-72
2023/03/16 00:27:07;;;;;;;;;3.00;3.00;;;;;;;;5112193;27;9958;-72
2023/03/16 00:29:33;;;;;;;;;5.00;4.00;;;;;;;;5111908;27;10065;-72
2023/03/16 00:31:58;;;;;;;;;5.25;5.25;;;;;;;;5112053;27;8769;-72
2023/03/16 00:34:24;;;;;;;;;5.50;4.50;;;;;;;;5110632;28;8801;-72
2023/03/16 00:36:49;;;;;;;;;4.25;4.25;;;;;;;;5112124;27;8865;-72
2023/03/16 00:39:14;;;;;;;;;4.25;4.25;;;;;;;;5110599;28;8801;-72
2023/03/16 00:41:40;;;;;;;;;5.00;4.00;;;;;;;;5111897;28;8826;-72
2023/03/16 00:44:08;;;;;;;;;6.25;5.00;;;;;;;;5112045;27;8814;-72
2023/03/16 00:46:33;;;;;;;;;3.75;3.00;;;;;;;;5111843;27;11006;-72
2023/03/16 00:48:59;;;;;;;;;6.00;6.00;;;;;;;;5111683;28;10180;-71
2023/03/16 00:51:24;;;;;;;;;2.25;2.25;;;;;;;;5093595;28;8820;-72
2023/03/16 00:53:49;;;;;;;;;5.50;4.50;;;;;;;;5111776;28;8899;-72
2023/03/16 00:56:14;;;;;;;;;5.00;4.50;;;;;;;;5111738;28;8789;-73
2023/03/16 00:58:42;;;;;;;;;6.00;6.00;;;;;;;;5111531;27;8802;-73
2023/03/16 01:01:12;;;;;;;;;6.50;6.50;;;;;;;;5111335;27;8785;-73
2023/03/16 01:03:37;;;;;;;;;5.25;5.25;;;;;;;;5111499;28;10082;-71
2023/03/16 01:06:04;;;;;;;;;4.75;4.50;;;;;;;;5110281;28;10198;-71
2023/03/16 01:08:31;;;;;;;;;5.00;5.00;;;;;;;;5111751;27;8780;-72
2023/03/16 01:11:00;;;;;;;;;4.00;4.00;;;;;;;;5111416;27;10156;-72
2023/03/16 01:13:25;;;;;;;;;6.25;5.00;;;;;;;;5111339;27;10997;-72
2023/03/16 01:15:51;;;;;;;;;5.00;5.00;;;;;;;;5111257;28;10259;-71
2023/03/16 01:18:16;;;;;;;;;8.00;8.00;;;;;;;;5091349;27;9538;-71
2023/03/16 01:20:49;;;;;;;;;3.75;3.75;;;;;;;;5090777;28;8823;-72
2023/03/16 01:23:14;;;;;;;;;6.00;6.00;;;;;;;;5090674;28;8783;-73
2023/03/16 01:25:41;;;;;;;;;5.50;5.50;;;;;;;;5090854;28;10338;-72
2023/03/16 01:28:06;;;;;;;;;6.25;6.25;;;;;;;;5091342;28;8803;-73
2023/03/16 01:30:32;;;;;;;;;4.00;4.00;;;;;;;;5097155;28;10263;-73
2023/03/16 01:32:57;;;;;;;;;6.00;6.00;;;;;;;;5097498;28;8869;-72
2023/03/16 01:35:22;;;;;;;;;6.00;5.00;;;;;;;;5096526;28;8811;-73
2023/03/16 01:37:48;;;;;;;;;5.00;5.00;;;;;;;;5097281;28;8812;-72
2023/03/16 01:40:13;;;;;;;;;5.75;5.75;;;;;;;;5096120;28;8814;-72
2023/03/16 01:42:57;;;;;;;;;4.00;4.00;;;;;;;;5108757;27;8851;-72
2023/03/16 01:45:41;;;;;;;;;7.00;6.00;;;;;;;;5117833;27;8769;-72
2023/03/16 01:48:07;;;;;;;;;6.00;5.50;;;;;;;;5117619;28;10221;-72
2023/03/16 01:50:32;;;;;;;;;5.75;5.50;;;;;;;;5117458;27;10486;-72
2023/03/16 01:52:57;;;;;;;;;4.25;4.25;;;;;;;;5116287;27;8827;-72
2023/03/16 01:55:23;;;;;;;;;1.75;1.50;;;;;;;;5117554;27;8797;-72
2023/03/16 01:57:48;;;;;;;;;4.50;4.50;;;;;;;;5115923;28;8870;-72
2023/03/16 02:00:18;;;;;;;;;4.75;4.50;;;;;;;;5117296;27;8823;-72
2023/03/16 02:02:45;;;;;;;;;5.00;5.00;;;;;;;;5117482;27;8765;-73
2023/03/16 02:05:21;;;;;;;;;7.00;5.50;;;;;;;;5116848;27;10221;-72
2023/03/16 02:07:48;;;;;;;;;7.50;5.75;;;;;;;;5117139;27;10326;-72
2023/03/16 02:10:14;;;;;;;;;4.25;4.25;;;;;;;;5116720;27;10324;-72
2023/03/16 02:12:39;;;;;;;;;8.75;4.00;;;;;;;;5116958;27;10081;-73
2023/03/16 02:15:04;;;;;;;;;4.00;4.00;;;;;;;;5116821;28;10118;-72
2023/03/16 02:17:30;;;;;;;;;6.50;4.00;;;;;;;;5117533;27;8793;-72
2023/03/16 02:20:21;;;;;;;;;5.50;5.50;;;;;;;;5117609;27;8764;-73
2023/03/16 02:22:48;;;;;;;;;5.00;5.00;;;;;;;;5107509;28;8977;-73
2023/03/16 02:25:15;;;;;;;;;4.50;4.00;;;;;;;;5117334;27;10314;-72
2023/03/16 02:27:40;;;;;;;;;6.00;5.50;;;;;;;;5117571;28;10217;-72
2023/03/16 02:30:07;;;;;;;;;7.00;7.00;;;;;;;;5116867;28;10364;-72
2023/03/16 02:32:34;;;;;;;;;5.00;5.00;;;;;;;;5116935;27;8777;-72
2023/03/16 02:35:01;;;;;;;;;6.00;5.00;;;;;;;;5117411;27;10152;-72
2023/03/16 02:37:26;;;;;;;;;12.00;7.25;;;;;;;;5117216;27;10354;-73
2023/03/16 02:39:52;;;;;;;;;7.50;5.00;;;;;;;;5116090;27;10419;-72
2023/03/16 02:42:20;;;;;;;;;6.00;6.00;;;;;;;;5112044;27;9587;-73
2023/03/16 02:44:47;;;;;;;;;6.00;6.00;;;;;;;;5113609;27;8777;-73
2023/03/16 02:47:19;;;;;;;;;5.25;4.50;;;;;;;;5113511;27;10328;-73
2023/03/16 02:49:45;;;;;;;;;11.00;10.25;;;;;;;;5113530;27;10344;-72
2023/03/16 02:52:10;;;;;;;;;5.00;5.00;;;;;;;;5113425;28;10403;-72
2023/03/16 02:54:35;;;;;;;;;8.00;8.00;;;;;;;;5112191;28;8952;-73
2023/03/16 02:57:00;;;;;;;;;7.25;5.75;;;;;;;;5113693;28;8781;-72
2023/03/16 02:59:26;;;;;;;;;4.50;4.50;;;;;;;;5113389;28;8792;-73
2023/03/16 03:01:51;;;;;;;;;5.50;5.50;;;;;;;;5113542;27;9444;-72
2023/03/16 03:04:17;;;;;;;;;5.00;5.00;;;;;;;;5113676;27;8883;-72
2023/03/16 03:06:42;;;;;;;;;5.50;5.50;;;;;;;;5113423;27;8821;-73
2023/03/16 03:09:10;;;;;;;;;5.00;5.00;;;;;;;;5113447;27;8804;-72
2023/03/16 03:11:36;;;;;;;;;4.50;4.25;;;;;;;;5112870;27;8800;-72
2023/03/16 03:14:01;;;;;;;;;4.50;4.50;;;;;;;;5113320;27;10306;-72
2023/03/16 03:16:26;;;;;;;;;3.00;3.00;;;;;;;;5111778;28;8832;-73
2023/03/16 03:18:51;;;;;;;;;4.25;3.50;;;;;;;;5111644;28;8816;-72
2023/03/16 03:21:17;;;;;;;;;10.00;5.00;;;;;;;;5113085;28;8797;-72
2023/03/16 03:23:45;;;;;;;;;7.00;4.75;;;;;;;;5113068;27;9586;-72
2023/03/16 03:26:11;;;;;;;;;4.50;4.50;;;;;;;;5112673;27;8761;-72
2023/03/16 03:28:36;;;;;;;;;4.50;4.50;;;;;;;;5112966;27;10537;-73
2023/03/16 03:31:01;;;;;;;;;9.25;5.00;;;;;;;;5112864;28;8834;-73
2023/03/16 03:33:27;;;;;;;;;4.75;3.75;;;;;;;;5112530;28;8833;-72
2023/03/16 03:35:55;;;;;;;;;5.00;5.00;;;;;;;;5113169;27;8871;-72
2023/03/16 03:38:20;;;;;;;;;5.50;4.50;;;;;;;;5113012;27;8784;-72
2023/03/16 03:40:48;;;;;;;;;6.50;4.00;;;;;;;;5112571;27;10343;-72
2023/03/16 03:43:13;;;;;;;;;4.75;3.50;;;;;;;;5112483;27;8773;-72
2023/03/16 03:45:38;;;;;;;;;5.75;4.75;;;;;;;;5112695;28;10329;-72
2023/03/16 03:48:04;;;;;;;;;4.50;4.25;;;;;;;;5112637;28;8808;-72
2023/03/16 03:50:29;;;;;;;;;5.50;5.50;;;;;;;;5111046;28;8951;-72
2023/03/16 03:52:54;;;;;;;;;4.00;4.00;;;;;;;;5112585;28;8795;-71
2023/03/16 03:55:19;;;;;;;;;5.50;5.50;;;;;;;;5112337;28;8789;-72
2023/03/16 03:57:44;;;;;;;;;5.00;5.00;;;;;;;;5112932;28;8796;-71
2023/03/16 04:00:12;;;;;;;;;4.25;3.00;;;;;;;;5112608;28;8796;-71
2023/03/16 04:02:37;;;;;;;;;4.00;4.00;;;;;;;;5112357;27;8749;-72
2023/03/16 04:05:03;;;;;;;;;6.00;5.00;;;;;;;;5112501;27;10322;-72
2023/03/16 04:07:28;;;;;;;;;3.75;3.75;;;;;;;;5112564;27;8878;-73
2023/03/16 04:09:54;;;;;;;;;4.00;4.00;;;;;;;;5112023;28;8851;-73
2023/03/16 04:12:19;;;;;;;;;4.75;4.75;;;;;;;;5112642;28;8865;-73
2023/03/16 04:14:44;;;;;;;;;6.00;4.25;;;;;;;;5112218;27;8804;-73
2023/03/16 04:17:11;;;;;;;;;8.75;4.75;;;;;;;;5112089;28;8785;-72
2023/03/16 04:19:36;;;;;;;;;4.75;4.75;;;;;;;;5112203;27;8896;-72
2023/03/16 04:22:01;;;;;;;;;4.00;4.00;;;;;;;;5111717;28;10307;-72
2023/03/16 04:24:26;;;;;;;;;4.75;4.75;;;;;;;;5091766;28;8780;-72
2023/03/16 04:26:53;;;;;;;;;2.00;2.00;;;;;;;;5091915;28;8775;-72
2023/03/16 04:29:18;;;;;;;;;4.00;4.00;;;;;;;;5091836;28;8760;-73
2023/03/16 04:31:44;;;;;;;;;4.75;3.00;;;;;;;;5091708;28;10458;-72
2023/03/16 04:34:10;;;;;;;;;3.00;3.00;;;;;;;;5091651;28;8860;-72
2023/03/16 04:36:36;;;;;;;;;3.00;3.00;;;;;;;;5092007;28;8779;-72
2023/03/16 04:39:01;;;;;;;;;5.25;3.75;;;;;;;;5103793;28;10428;-72
2023/03/16 04:41:26;;;;;;;;;3.00;3.00;;;;;;;;5111586;27;8800;-72
2023/03/16 04:43:51;;;;;;;;;3.00;3.00;;;;;;;;5111294;28;8835;-71
2023/03/16 04:46:17;;;;;;;;;5.00;3.75;;;;;;;;5110751;28;8807;-72
2023/03/16 04:48:42;;;;;;;;;5.00;3.00;;;;;;;;5111552;27;8777;-71
2023/03/16 04:51:07;;;;;;;;;4.50;3.25;;;;;;;;5111804;28;8789;-72
2023/03/16 04:53:33;;;;;;;;;5.75;4.25;;;;;;;;5109952;28;8797;-72
2023/03/16 04:55:58;;;;;;;;;4.25;4.25;;;;;;;;5111597;28;9519;-72
2023/03/16 04:58:24;;;;;;;;;4.00;4.00;;;;;;;;5111939;27;8888;-72
2023/03/16 05:00:52;;;;;;;;;3.25;3.25;;;;;;;;5111589;27;8899;-72
2023/03/16 05:03:18;;;;;;;;;2.00;2.00;;;;;;;;5111038;27;8783;-72
2023/03/16 05:05:45;;;;;;;;;3.00;3.00;;;;;;;;5111705;28;10076;-71
2023/03/16 05:08:11;;;;;;;;;4.00;2.50;;;;;;;;5110329;28;8834;-72
2023/03/16 05:10:36;;;;;;;;;3.50;3.50;;;;;;;;5111566;27;10232;-72
2023/03/16 05:13:02;;;;;;;;;3.00;3.00;;;;;;;;5111535;27;9623;-72
2023/03/16 05:15:27;;;;;;;;;5.00;4.00;;;;;;;;5111675;28;8807;-72
2023/03/16 05:17:53;;;;;;;;;4.00;3.00;;;;;;;;5097668;28;8823;-72
2023/03/16 05:20:20;;;;;;;;;2.00;2.00;;;;;;;;5091389;28;8784;-72
2023/03/16 05:22:47;;;;;;;;;3.00;3.00;;;;;;;;5090371;28;10176;-72
2023/03/16 05:25:13;;;;;;;;;2.00;2.00;;;;;;;;5091117;28;10057;-72
2023/03/16 05:27:42;;;;;;;;;2.50;2.50;;;;;;;;5090603;28;10086;-72
2023/03/16 05:30:09;;;;;;;;;3.00;3.00;;;;;;;;5090801;28;10279;-72
2023/03/16 05:32:34;;;;;;;;;3.00;3.00;;;;;;;;5090599;28;10336;-74
2023/03/16 05:35:02;;;;;;;;;2.50;2.50;;;;;;;;5091009;28;10196;-72
2023/03/16 05:37:27;;;;;;;;;2.25;2.25;;;;;;;;5090567;28;8779;-72
2023/03/16 05:39:52;;;;;;;;;2.00;2.00;;;;;;;;5090781;28;10258;-72
2023/03/16 05:42:18;;;;;;;;;2.00;2.00;;;;;;;;5100311;27;8789;-72
2023/03/16 05:44:43;;;;;;;;;5.50;2.25;;;;;;;;5111359;27;8812;-71
2023/03/16 05:47:09;;;;;;;;;5.25;2.00;;;;;;;;5111027;28;10026;-72
2023/03/16 05:49:34;;;;;;;;;2.00;2.00;;;;;;;;5111130;28;8765;-71
2023/03/16 05:51:59;;;;;;;;;1.75;1.50;;;;;;;;5109949;28;8849;-72
2023/03/16 05:54:24;;;;;;;;;2.25;1.50;;;;;;;;5111209;28;8781;-72
2023/03/16 05:56:49;;;;;;;;;2.00;2.00;;;;;;;;5111159;28;8827;-69
2023/03/16 05:59:16;;;;;;;;;2.00;2.00;;;;;;;;5110951;28;8777;-69
2023/03/16 06:01:42;;;;;;;;;2.00;2.00;;;;;;;;5110999;27;9571;-69
2023/03/16 06:04:07;;;;;;;;;3.00;3.00;;;;;;;;5101327;28;10030;-70
2023/03/16 06:06:32;;;;;;;;;2.00;2.00;;;;;;;;5090195;28;8832;-71
2023/03/16 06:08:57;;;;;;;;;2.75;2.75;;;;;;;;5093517;28;8797;-71
2023/03/16 06:11:23;;;;;;;;;2.25;1.25;;;;;;;;5110795;28;8820;-71
2023/03/16 06:13:48;;;;;;;;;2.00;2.00;;;;;;;;5110849;27;8820;-70
2023/03/16 06:16:15;;;;;;;;;1.50;1.50;;;;;;;;5112570;28;8799;-70
2023/03/16 06:18:40;;;;;;;;;2.25;2.00;;;;;;;;5114091;27;8798;-70
2023/03/16 06:21:06;;;;;;;;;1.50;1.50;;;;;;;;5114197;27;10067;-70
2023/03/16 06:23:31;;;;;;;;;2.25;2.25;;;;;;;;5114329;28;9005;-70
2023/03/16 06:25:58;;;;;;;;;1.75;1.75;;;;;;;;5114353;27;8789;-70
2023/03/16 06:28:23;;;;;;;;;2.75;1.75;;;;;;;;5113037;28;8802;-69
2023/03/16 06:30:52;;;;;;;;;2.75;2.00;;;;;;;;5113784;27;10758;-71
2023/03/16 06:33:17;;;;;;;;;2.00;1.00;;;;;;;;5113828;27;8801;-70
2023/03/16 06:35:42;;;;;;;;;4.75;3.25;;;;;;;;5114236;28;10040;-71
2023/03/16 06:38:07;;;;;;;;;2.00;2.00;;;;;;;;5113027;28;8804;-71
2023/03/16 06:40:32;;;;;;;;;2.50;2.50;;;;;;;;5113821;28;8801;-71
2023/03/16 06:42:58;;;;;;;;;2.00;2.00;;;;;;;;5112902;27;8785;-71
2023/03/16 06:45:24;;;;;;;;;3.00;3.00;;;;;;;;5113133;28;8793;-70
2023/03/16 06:47:49;;;;;;;;;2.75;1.75;;;;;;;;5113255;27;8753;-71
2023/03/16 06:50:15;;;;;;;;;4.25;2.00;;;;;;;;5113378;28;10792;-69
2023/03/16 06:52:40;;;;;;;;;3.75;2.00;;;;;;;;5112132;28;9455;-70
2023/03/16 06:55:06;;;;;;;;;3.00;2.00;;;;;;;;5113911;27;8803;-69
2023/03/16 06:57:31;;;;;;;;;2.00;2.00;;;;;;;;5114029;27;8896;-71
2023/03/16 06:59:57;;;;;;;;;1.75;1.75;;;;;;;;5112094;28;8801;-70
2023/03/16 07:02:22;;;;;;;;;4.75;2.00;;;;;;;;5113840;28;8859;-70
2023/03/16 07:04:48;;;;;;;;;1.25;1.25;;;;;;;;5113597;27;8785;-70
2023/03/16 07:07:13;;;;;;;;;3.50;3.00;;;;;;;;5113445;27;8785;-70
2023/03/16 07:09:38;;;;;;;;;3.25;2.25;;;;;;;;5112486;28;8804;-70
2023/03/16 07:12:03;;;;;;;;;2.00;2.00;;;;;;;;5113729;28;8801;-70
2023/03/16 07:14:29;;;;;;;;;2.25;2.25;;;;;;;;5113532;28;8896;-70
2023/03/16 07:16:54;;;;;;;;;2.25;2.00;;;;;;;;5112117;28;8816;-69
2023/03/16 07:19:19;;;;;;;;;2.00;2.00;;;;;;;;5113077;27;8780;-71
2023/03/16 07:21:44;;;;;;;;;1.00;1.00;;;;;;;;5113502;28;9628;-70
2023/03/16 07:24:11;;;;;;;;;3.00;2.00;;;;;;;;5113295;28;8785;-70
2023/03/16 07:26:36;;;;;;;;;3.00;3.00;;;;;;;;5112891;27;9342;-70
2023/03/16 07:29:05;;;;;;;;;1.75;1.75;;;;;;;;5113442;28;10022;-70
2023/03/16 07:31:31;;;;;;;;;1.75;1.75;;;;;;;;5113140;27;8914;-70
2023/03/16 07:33:56;;;;;;;;;4.00;2.25;;;;;;;;5113060;27;10033;-70
2023/03/16 07:36:22;;;;;;;;;2.00;2.00;;;;;;;;5113539;27;10099;-71
2023/03/16 07:38:47;;;;;;;;;2.00;2.00;;;;;;;;5113306;27;8826;-72
2023/03/16 07:41:12;;;;;;;;;2.00;1.25;;;;;;;;5113003;27;8800;-71
2023/03/16 07:43:38;;;;;;;;;1.50;1.50;;;;;;;;5113295;27;8853;-70
2023/03/16 07:46:04;;;;;;;;;2.00;2.00;;;;;;;;5112665;28;8809;-70
2023/03/16 07:48:29;;;;;;;;;2.00;2.00;;;;;;;;5112599;27;8872;-70
2023/03/16 07:50:54;;;;;;;;;1.25;1.25;;;;;;;;5111710;28;10058;-71
2023/03/16 07:53:19;;;;;;;;;1.50;1.50;;;;;;;;5112779;28;8785;-72
2023/03/16 07:55:45;;;;;;;;;1.25;1.25;;;;;;;;5112731;28;8870;-70
2023/03/16 07:58:10;;;;;;;;;2.00;1.00;;;;;;;;5112595;27;9528;-70
2023/03/16 08:00:36;;;;;;;;;0.00;0.00;;;;;;;;5112523;27;9555;-70
2023/03/16 08:03:01;;;;;;;;;2.00;2.00;;;;;;;;5112328;28;8793;-71
2023/03/16 08:05:26;;;;;;;;;1.00;1.00;;;;;;;;5112882;27;8870;-72
2023/03/16 08:07:52;;;;;;;;;2.25;2.00;;;;;;;;5112633;27;8792;-71
2023/03/16 08:10:17;;;;;;;;;0.00;0.00;;;;;;;;5112806;27;8835;-71
2023/03/16 08:12:43;;;;;;;;;2.00;2.00;;;;;;;;5112650;27;8797;-70
2023/03/16 08:15:09;;;;;;;;;2.25;2.00;;;;;;;;5112618;27;8811;-70
2023/03/16 08:17:35;;;;;;;;;2.00;2.00;;;;;;;;5112712;27;8791;-70
2023/03/16 08:20:00;;;;;;;;;6.75;2.00;;;;;;;;5112840;27;8769;-71
2023/03/16 08:22:25;;;;;;;;;2.00;2.00;;;;;;;;5112351;28;9941;-71
2023/03/16 08:24:52;;;;;;;;;1.00;1.00;;;;;;;;5112361;28;8761;-70
2023/03/16 08:27:19;;;;;;;;;1.75;1.75;;;;;;;;5112676;27;8749;-71
2023/03/16 08:29:45;;;;;;;;;3.75;2.25;;;;;;;;5112506;27;9843;-71
2023/03/16 08:32:11;;;;;;;;;2.25;2.00;;;;;;;;5111971;27;9949;-71
2023/03/16 08:34:38;;;;;;;;;2.00;2.00;;;;;;;;5112393;27;9788;-71
2023/03/16 08:37:04;;;;;;;;;1.25;1.25;;;;;;;;5112287;27;8873;-71
2023/03/16 08:39:29;;;;;;;;;1.00;1.00;;;;;;;;5111350;28;9908;-69
2023/03/16 08:41:55;;;;;;;;;2.00;2.00;;;;;;;;5090229;28;8853;-71
2023/03/16 08:44:22;;;;;;;;;3.00;3.00;;;;;;;;5091941;28;8772;-70
2023/03/16 08:46:47;;;;;;;;;2.75;2.00;;;;;;;;5091188;28;10003;-70
2023/03/16 08:49:13;;;;;;;;;2.00;2.00;;;;;;;;5091508;28;10973;-70
2023/03/16 08:51:38;;;;;;;;;2.50;2.50;;;;;;;;5090114;28;8815;-69
2023/03/16 08:54:03;;;;;;;;;3.50;3.00;;;;;;;;5091689;28;8787;-70
2023/03/16 08:56:29;;;;;;;;;5.00;2.00;;;;;;;;5091627;28;8787;-70
2023/03/16 08:58:54;;;;;;;;;5.00;2.00;;;;;;;;5091487;28;8784;-70
2023/03/16 09:01:21;;;;;;;;;1.75;1.75;;;;;;;;5091277;28;8799;-70
2023/03/16 09:03:46;;;;;;;;;1.00;1.00;;;;;;;;5091775;28;8780;-71
2023/03/16 09:06:13;;;;;;;;;1.25;1.25;;;;;;;;5091683;28;9995;-70
2023/03/16 09:08:39;;;;;;;;;3.25;3.25;;;;;;;;5091503;28;8771;-71
2023/03/16 09:11:06;;;;;;;;;2.00;1.00;;;;;;;;5091236;28;10020;-70
2023/03/16 09:13:32;;;;;;;;;1.00;1.00;;;;;;;;5091280;28;8782;-70
2023/03/16 09:15:58;;;;;;;;;1.00;1.00;;;;;;;;5091081;28;9653;-71
2023/03/16 09:18:25;;;;;;;;;4.50;2.00;;;;;;;;5091504;28;9817;-71
2023/03/16 09:20:51;;;;;;;;;5.00;2.00;;;;;;;;5091074;28;11424;-71
2023/03/16 09:23:17;;;;;;;;;3.00;3.00;;;;;;;;5091027;28;9569;-72
2023/03/16 09:25:43;;;;;;;;;0.75;0.50;;;;;;;;5091469;28;8783;-72
2023/03/16 09:28:08;;;;;;;;;3.50;3.50;;;;;;;;5091082;28;9636;-72
2023/03/16 09:30:33;;;;;;;;;3.00;2.00;;;;;;;;5090982;28;8828;-71
2023/03/16 09:32:59;;;;;;;;;1.33;1.33;;;;;;;;5091105;28;8808;-72
2023/03/16 09:35:25;;;;;;;;;2.00;2.00;;;;;;;;5091080;28;8807;-72
2023/03/16 09:37:51;;;;;;;;;4.50;2.00;;;;;;;;5091020;28;8779;-71
2023/03/16 09:40:21;;;;;;;;;2.00;2.00;;;;;;;;5091029;28;9472;-69
2023/03/16 09:43:08;;;;;;;;;2.00;2.00;;;;;;;;5104576;27;9729;-70
2023/03/16 09:45:37;;;;;;;;;3.00;2.00;;;;;;;;5097457;28;9612;-70
2023/03/16 09:48:03;;;;;;;;;2.00;2.00;;;;;;;;5111397;27;9707;-70
2023/03/16 09:50:32;;;;;;;;;1.50;1.50;;;;;;;;5113091;27;9552;-70
2023/03/16 09:53:03;;;;;;;;;5.25;3.25;;;;;;;;5114677;27;9614;-71
2023/03/16 09:55:36;;;;;;;;;4.00;3.00;;;;;;;;5114973;27;9628;-71
2023/03/16 09:58:04;;;;;;;;;3.25;2.75;;;;;;;;5114714;27;9467;-70
2023/03/16 10:00:32;;;;;;;;;2.00;2.00;;;;;;;;5114820;27;9455;-70
2023/03/16 10:03:13;;;;;;;;;1.67;1.33;;;;;;;;5114807;27;9419;-70
2023/03/16 10:05:39;;;;;;;;;1.00;1.00;;;;;;;;5114970;27;9523;-70
2023/03/16 10:08:07;;;;;;;;;3.00;2.00;;;;;;;;5114466;27;9611;-70
2023/03/16 10:10:39;;;;;;;;;3.50;1.00;;;;;;;;5114409;27;8812;-72
2023/03/16 10:13:11;;;;;;;;;2.00;2.00;;;;;;;;5114571;28;9690;-71
2023/03/16 10:15:38;;;;;;;;;3.25;2.00;;;;;;;;5114633;28;9508;-71
2023/03/16 10:18:05;;;;;;;;;1.75;1.75;;;;;;;;5114646;28;9722;-70
2023/03/16 10:20:32;;;;;;;;;1.25;1.25;;;;;;;;5114597;27;9521;-72
2023/03/16 10:22:59;;;;;;;;;1.33;1.33;;;;;;;;5114156;27;9549;-71
2023/03/16 10:25:24;;;;;;;;;1.25;1.25;;;;;;;;5114379;27;9461;-71
2023/03/16 10:27:50;;;;;;;;;2.00;2.00;;;;;;;;5114207;28;10199;-71
2023/03/16 10:30:18;;;;;;;;;2.25;1.50;;;;;;;;5114194;27;8809;-71
2023/03/16 10:32:44;;;;;;;;;1.00;1.00;;;;;;;;5114072;27;8878;-71
2023/03/16 10:35:21;;;;;;;;;2.00;2.00;;;;;;;;5114243;27;9526;-70
2023/03/16 10:37:47;;;;;;;;;1.00;1.00;;;;;;;;5114101;27;9578;-71
2023/03/16 10:40:13;;;;;;;;;3.33;3.00;;;;;;;;5114376;27;9632;-70
2023/03/16 10:42:38;;;;;;;;;1.67;0.67;;;;;;;;5112439;27;9471;-70
2023/03/16 10:45:04;;;;;;;;;1.67;0.67;;;;;;;;5113900;28;8851;-70
2023/03/16 10:47:31;;;;;;;;;0.67;0.67;;;;;;;;5112596;28;8896;-70
2023/03/16 10:49:56;;;;;;;;;2.33;1.67;;;;;;;;5113657;27;8827;-71
2023/03/16 10:52:25;;;;;;;;;0.33;0.33;;;;;;;;5114034;27;9464;-70
2023/03/16 10:55:01;;;;;;;;;5.33;2.00;;;;;;;;5113821;27;8777;-70
2023/03/16 10:57:26;;;;;;;;;1.00;1.00;;;;;;;;5112040;28;9460;-70
2023/03/16 10:59:53;;;;;;;;;2.50;1.25;;;;;;;;5113573;28;9620;-70
2023/03/16 11:02:22;;;;;;;;;2.00;2.00;;;;;;;;5112928;27;8812;-71
2023/03/16 11:04:48;;;;;;;;;2.00;2.00;;;;;;;;5112586;28;9549;-70
2023/03/16 11:07:17;;;;;;;;;5.00;2.00;;;;;;;;5113804;27;9564;-70
2023/03/16 11:09:43;;;;;;;;;1.67;1.67;;;;;;;;5112166;28;8800;-70
2023/03/16 11:12:29;;;;;;;;;1.67;1.67;;;;;;;;5101303;27;9506;-71
2023/03/16 11:15:01;;;;;;;;;1.67;1.00;;;;;;;;5093152;28;8780;-72
2023/03/16 11:17:32;;;;;;;;;4.33;2.33;;;;;;;;5091784;28;9414;-70
2023/03/16 11:20:04;;;;;;;;;1.67;1.67;;;;;;;;5092892;28;9583;-71
2023/03/16 11:22:30;;;;;;;;;0.33;0.33;;;;;;;;5096807;28;9636;-71
2023/03/16 11:25:19;;;;;;;;;3.00;3.00;;;;;;;;5113208;27;9439;-70
2023/03/16 11:28:03;;;;;;;;;1.67;1.00;;;;;;;;5113092;27;8772;-71
2023/03/16 11:31:07;;;;;;;;;3.25;2.00;;;;;;;;5113246;28;10385;-70
2023/03/16 11:33:33;;;;;;;;;2.50;2.50;;;;;;;;5030054;28;9723;-70
2023/03/16 11:36:07;;;;;;;;;2.33;1.67;;;;;;;;5030152;28;9531;-70
2023/03/16 11:38:33;;;;;;;;;5.00;3.00;;;;;;;;5030162;28;9479;-70
2023/03/16 11:41:00;;;;;;;;;2.00;2.00;;;;;;;;5029845;28;9557;-70
2023/03/16 11:43:28;;;;;;;;;3.00;2.00;;;;;;;;5030316;28;8818;-72
2023/03/16 11:46:02;;;;;;;;;4.75;3.00;;;;;;;;5029650;28;9476;-70
2023/03/16 11:48:31;;;;;;;;;2.00;2.00;;;;;;;;5030007;28;9607;-70
2023/03/16 11:51:03;;;;;;;;;2.00;0.67;;;;;;;;5029883;28;9581;-71
2023/03/16 11:53:47;;;;;;;;;2.33;2.33;;;;;;;;5030065;28;9412;-71
2023/03/16 11:56:12;;;;;;;;;1.33;1.33;;;;;;;;5029921;28;9426;-71
2023/03/16 11:58:49;;;;;;;;;2.75;2.25;;;;;;;;5029942;28;9464;-71
2023/03/16 12:01:14;;;;;;;;;3.00;1.75;;;;;;;;5029768;28;8779;-71
2023/03/16 12:04:00;;;;;;;;;2.33;1.33;;;;;;;;5045060;28;9619;-70
2023/03/16 12:06:45;;;;;;;;;3.00;2.50;;;;;;;;5092254;28;8791;-70
2023/03/16 12:09:14;;;;;;;;;2.33;2.33;;;;;;;;5091867;28;9463;-71
2023/03/16 12:11:58;;;;;;;;;2.00;2.00;;;;;;;;5090645;28;9552;-69
2023/03/16 12:14:23;;;;;;;;;1.00;1.00;;;;;;;;5096642;28;9678;-68
2023/03/16 12:16:58;;;;;;;;;1.00;1.00;;;;;;;;5109668;28;9589;-69
2023/03/16 12:19:27;;;;;;;;;1.67;1.67;;;;;;;;5110414;28;8792;-71
2023/03/16 12:21:58;;;;;;;;;0.67;0.67;;;;;;;;5106404;27;9340;-71
2023/03/16 12:24:27;;;;;;;;;0.67;0.67;;;;;;;;5090118;28;9469;-70
2023/03/16 12:26:53;;;;;;;;;0.67;0.67;;;;;;;;5090951;28;9544;-71
2023/03/16 12:29:21;;;;;;;;;1.67;1.00;;;;;;;;5091349;28;9272;-70
2023/03/16 12:32:13;;;;;;;;;1.33;1.33;;;;;;;;5090983;28;9496;-71
2023/03/16 12:35:14;;;;;;;;;2.00;2.00;;;;;;;;5069096;28;9394;-71
2023/03/16 12:37:55;;;;;;;;;2.00;2.00;;;;;;;;5028326;28;9479;-71
2023/03/16 12:40:27;;;;;;;;;1.33;1.33;;;;;;;;5029040;28;9651;-70
2023/03/16 12:42:52;;;;;;;;;3.00;0.00;;;;;;;;5041669;28;9338;-72
2023/03/16 12:45:26;;;;;;;;;1.00;1.00;;;;;;;;5048204;28;9596;-71
2023/03/16 12:48:18;;;;;;;;;0.33;0.33;;;;;;;;5048633;28;8782;-70
2023/03/16 12:50:51;;;;;;;;;1.00;1.00;;;;;;;;5044779;28;10109;-70
2023/03/16 12:53:25;;;;;;;;;1.33;1.33;;;;;;;;5048373;28;9322;-71
2023/03/16 12:55:51;;;;;;;;;1.67;0.00;;;;;;;;5048914;28;9318;-70
2023/03/16 12:58:16;;;;;;;;;2.00;2.00;;;;;;;;5048450;28;9400;-70
2023/03/16 13:00:42;;;;;;;;;2.00;0.67;;;;;;;;5048992;28;8810;-70
2023/03/16 13:03:13;;;;;;;;;1.00;1.00;;;;;;;;5048873;28;9585;-72
2023/03/16 13:05:43;;;;;;;;;3.33;1.67;;;;;;;;5032013;28;8775;-70
2023/03/16 13:08:10;;;;;;;;;0.33;0.33;;;;;;;;5048336;28;9688;-71
2023/03/16 13:10:36;;;;;;;;;2.33;0.67;;;;;;;;5052984;28;9416;-71
2023/03/16 13:13:13;;;;;;;;;3.33;0.67;;;;;;;;5091219;28;9316;-70
2023/03/16 13:15:39;;;;;;;;;2.33;1.00;;;;;;;;5091273;28;11367;-70
2023/03/16 13:18:20;;;;;;;;;1.00;1.00;;;;;;;;5091155;28;9430;-70
2023/03/16 13:21:00;;;;;;;;;1.75;1.75;;;;;;;;5090813;28;8821;-70
2023/03/16 13:23:45;;;;;;;;;0.00;0.00;;;;;;;;5089741;28;9514;-71
2023/03/16 13:26:14;;;;;;;;;1.00;1.00;;;;;;;;5090523;28;9344;-70
2023/03/16 13:28:42;;;;;;;;;0.33;0.33;;;;;;;;5091135;28;9234;-71
2023/03/16 13:31:23;;;;;;;;;1.00;0.00;;;;;;;;5089690;28;9357;-70
2023/03/16 13:33:51;;;;;;;;;1.00;1.00;;;;;;;;5089564;28;9422;-70
2023/03/16 13:36:17;;;;;;;;;1.00;1.00;;;;;;;;5091299;28;9472;-70
2023/03/16 13:38:42;;;;;;;;;0.00;0.00;;;;;;;;5089723;28;9406;-70
2023/03/16 13:41:12;;;;;;;;;1.00;1.00;;;;;;;;5091098;28;9601;-70
2023/03/16 13:43:40;;;;;;;;;1.00;1.00;;;;;;;;5096033;28;8769;-70
2023/03/16 13:46:13;;;;;;;;;1.00;1.00;;;;;;;;5111570;27;9381;-71
2023/03/16 13:48:39;;;;;;;;;2.00;1.00;;;;;;;;5111285;27;9368;-71
2023/03/16 13:51:14;;;;;;;;;1.00;1.00;;;;;;;;5111035;27;9482;-72
2023/03/16 13:53:39;;;;;;;;;2.67;2.00;;;;;;;;5111241;27;9313;-73
2023/03/16 13:56:05;;;;;;;;;1.67;0.67;;;;;;;;5111038;27;9511;-71
2023/03/16 13:58:33;;;;;;;;;2.00;2.00;;;;;;;;5111201;27;8889;-71
2023/03/16 14:01:00;;;;;;;;;1.33;1.33;;;;;;;;5110834;27;9381;-70
2023/03/16 14:03:32;;;;;;;;;0.33;0.33;;;;;;;;5111112;27;9457;-70
2023/03/16 14:05:58;;;;;;;;;1.00;1.00;;;;;;;;5110894;27;9451;-70
2023/03/16 14:08:25;;;;;;;;;1.75;1.00;;;;;;;;5111194;27;9489;-71
2023/03/16 14:10:53;;;;;;;;;0.00;0.00;;;;;;;;5109753;28;8886;-71
2023/03/16 14:13:27;;;;;;;;;1.00;1.00;;;;;;;;5110587;27;9825;-71
2023/03/16 14:15:54;;;;;;;;;1.50;1.50;;;;;;;;5110683;27;9526;-70
2023/03/16 14:18:22;;;;;;;;;1.00;1.00;;;;;;;;5110945;27;9529;-71
2023/03/16 14:20:54;;;;;;;;;4.75;2.00;;;;;;;;5110770;27;9518;-71
2023/03/16 14:23:23;;;;;;;;;1.00;1.00;;;;;;;;5099763;27;9626;-70
2023/03/16 14:25:49;;;;;;;;;2.50;1.75;;;;;;;;5090259;28;9703;-71
2023/03/16 14:28:16;;;;;;;;;2.00;2.00;;;;;;;;5090362;28;9654;-70
2023/03/16 14:30:52;;;;;;;;;1.75;1.50;;;;;;;;5090111;28;11484;-72
2023/03/16 14:33:28;;;;;;;;;2.00;1.00;;;;;;;;5089928;28;9481;-71
2023/03/16 14:35:54;;;;;;;;;2.00;2.00;;;;;;;;5090507;28;9542;-70
2023/03/16 14:38:28;;;;;;;;;5.75;2.25;;;;;;;;5092023;28;9632;-71
2023/03/16 14:40:56;;;;;;;;;2.00;2.00;;;;;;;;5093606;28;9778;-71
2023/03/16 14:43:28;;;;;;;;;2.25;2.25;;;;;;;;5111620;27;9657;-71
2023/03/16 14:45:53;;;;;;;;;3.33;2.00;;;;;;;;5112501;28;9708;-72
2023/03/16 14:48:19;;;;;;;;;3.50;1.25;;;;;;;;5113736;27;9488;-72
2023/03/16 14:50:47;;;;;;;;;2.00;2.00;;;;;;;;5113834;27;8804;-71
2023/03/16 14:53:13;;;;;;;;;1.50;1.50;;;;;;;;5113822;27;8769;-72
2023/03/16 14:55:38;;;;;;;;;2.00;1.00;;;;;;;;5114087;27;9559;-71